Time;durP1;ratioP1;P1;durP2;ratioP2;P2;SDS_P1;SDS_P2;PMS_P1;PMS_P2;Temp;Humidity;BMP_temperature;BMP_pressure;BME280_temperature;BME280_humidity;BME280_pressure;Samples;Min_cycle;Max_cycle;Signal;HPM_P1;HPM_P2
2022/03/17 00:01:04;;;;;;;44.97;25.40;;;;;;;7.12;100.00;95331.88;5018191;28;20214;-77
2022/03/17 00:03:32;;;;;;;45.83;25.83;;;;;;;7.13;100.00;95336.84;5021170;28;20210;-77
2022/03/17 00:06:00;;;;;;;49.53;28.47;;;;;;;7.21;100.00;95343.72;5018615;28;20252;-77
2022/03/17 00:08:28;;;;;;;47.50;25.30;;;;;;;7.29;100.00;95343.59;5022709;28;20285;-77
2022/03/17 00:10:57;;;;;;;38.70;23.47;;;;;;;7.09;100.00;95345.94;5015673;28;20214;-76
2022/03/17 00:13:26;;;;;;;38.33;23.10;;;;;;;7.03;100.00;95338.09;5017879;28;20737;-76
2022/03/17 00:15:56;;;;;;;35.37;21.40;;;;;;;7.05;100.00;95336.13;5026253;28;20214;-87
2022/03/17 00:18:25;;;;;;;32.80;19.80;;;;;;;6.95;100.00;95338.19;5019902;28;20198;-86
2022/03/17 00:20:53;;;;;;;29.47;18.87;;;;;;;6.90;100.00;95337.94;5039959;28;20261;-87
2022/03/17 00:23:22;;;;;;;32.00;18.13;;;;;;;6.72;100.00;95320.97;5035520;28;20226;-87
2022/03/17 00:25:49;;;;;;;29.93;19.27;;;;;;;6.80;100.00;95328.66;5019626;28;20207;-84
2022/03/17 00:28:17;;;;;;;31.33;20.30;;;;;;;6.92;100.00;95330.81;5021341;28;20210;-83
2022/03/17 00:30:46;;;;;;;33.80;21.43;;;;;;;7.06;100.00;95335.97;5028271;28;20640;-77
2022/03/17 00:33:16;;;;;;;30.70;19.07;;;;;;;7.07;100.00;95332.38;5020915;28;20202;-77
2022/03/17 00:35:44;;;;;;;34.07;21.10;;;;;;;7.19;100.00;95332.72;5021976;28;20389;-77
2022/03/17 00:38:15;;;;;;;32.07;19.13;;;;;;;7.23;100.00;95337.38;5022427;28;20203;-78
2022/03/17 00:40:46;;;;;;;31.83;18.53;;;;;;;7.18;100.00;95334.53;5024391;28;20218;-78
2022/03/17 00:43:15;;;;;;;26.93;17.37;;;;;;;7.13;99.48;95323.13;5021427;28;20200;-77
2022/03/17 00:45:45;;;;;;;27.83;18.70;;;;;;;7.16;100.00;95343.44;5024076;28;20195;-77
2022/03/17 00:48:15;;;;;;;29.30;18.20;;;;;;;7.14;100.00;95348.78;5026086;28;20234;-77
2022/03/17 00:50:42;;;;;;;29.50;18.70;;;;;;;7.22;100.00;95351.28;5022037;28;20258;-76
2022/03/17 00:53:11;;;;;;;32.03;19.07;;;;;;;7.24;100.00;95359.63;5024891;28;20663;-76
2022/03/17 00:55:39;;;;;;;30.17;17.50;;;;;;;7.28;100.00;95362.66;5021147;28;20301;-77
2022/03/17 00:58:06;;;;;;;26.00;17.33;;;;;;;7.20;100.00;95366.16;5022682;28;20640;-77
2022/03/17 01:00:34;;;;;;;24.40;15.50;;;;;;;7.15;100.00;95363.31;5021979;28;20751;-76
2022/03/17 01:03:05;;;;;;;24.10;15.17;;;;;;;7.06;100.00;95366.16;5024635;28;20261;-76
2022/03/17 01:05:36;;;;;;;22.70;14.57;;;;;;;6.82;100.00;95368.03;5022402;28;20191;-78
2022/03/17 01:08:04;;;;;;;21.47;13.47;;;;;;;6.66;100.00;95369.97;5021632;28;20256;-77
2022/03/17 01:10:31;;;;;;;19.93;12.33;;;;;;;6.69;100.00;95369.63;5022446;28;20273;-76
2022/03/17 01:13:01;;;;;;;20.10;12.17;;;;;;;6.69;100.00;95370.44;5023196;28;20659;-77
2022/03/17 01:15:30;;;;;;;17.40;11.90;;;;;;;6.65;100.00;95371.75;5018728;28;20262;-76
2022/03/17 01:18:21;;;;;;;16.90;11.37;;;;;;;6.66;100.00;95377.72;5020499;28;20195;-77
2022/03/17 01:20:50;;;;;;;13.70;9.77;;;;;;;6.64;100.00;95383.03;5037733;28;20319;-84
2022/03/17 01:23:18;;;;;;;14.40;9.27;;;;;;;6.45;100.00;95365.47;5019439;28;20290;-84
2022/03/17 01:25:47;;;;;;;11.13;7.90;;;;;;;6.48;100.00;95377.22;5035473;28;20238;-84
2022/03/17 01:28:16;;;;;;;11.23;7.53;;;;;;;6.48;100.00;95378.03;5025685;28;20707;-84
2022/03/17 01:30:43;;;;;;;10.40;7.30;;;;;;;6.45;99.44;95377.59;5013184;28;20205;-84
2022/03/17 01:33:11;;;;;;;10.93;6.90;;;;;;;6.50;99.65;95380.44;5040677;28;20213;-83
2022/03/17 01:35:39;;;;;;;8.60;6.10;;;;;;;6.49;99.61;95378.84;5052963;28;20206;-83
2022/03/17 01:38:09;;;;;;;9.20;6.33;;;;;;;6.54;98.37;95384.28;5025978;28;20213;-83
2022/03/17 01:40:38;;;;;;;8.57;5.93;;;;;;;6.49;97.73;95379.66;5027527;28;20227;-83
2022/03/17 01:43:06;;;;;;;8.43;5.97;;;;;;;6.55;97.00;95394.41;5019702;28;20214;-84
2022/03/17 01:45:34;;;;;;;7.87;5.67;;;;;;;6.63;97.52;95396.97;5023442;28;20199;-84
2022/03/17 01:48:04;;;;;;;8.83;6.20;;;;;;;6.55;97.21;95380.72;5029001;28;20242;-83
2022/03/17 01:50:34;;;;;;;8.87;5.30;;;;;;;6.64;97.30;95390.00;5026643;28;20210;-84
2022/03/17 01:53:01;;;;;;;8.27;5.40;;;;;;;6.61;97.25;95398.13;5018724;28;20678;-84
2022/03/17 01:55:31;;;;;;;7.50;5.17;;;;;;;6.62;97.36;95395.34;5026636;28;20249;-84
2022/03/17 01:58:00;;;;;;;10.17;5.80;;;;;;;6.62;96.79;95392.75;5027607;28;20194;-83
2022/03/17 02:00:29;;;;;;;8.17;6.10;;;;;;;6.59;97.13;95395.69;5020077;28;20288;-76
2022/03/17 02:02:58;;;;;;;8.80;6.10;;;;;;;6.60;97.37;95399.88;5025190;28;20205;-76
2022/03/17 02:05:28;;;;;;;10.30;6.80;;;;;;;6.57;98.25;95389.09;5021494;28;20233;-77
2022/03/17 02:07:56;;;;;;;10.80;7.03;;;;;;;6.52;99.52;95394.00;5018798;28;20247;-83
2022/03/17 02:10:26;;;;;;;11.33;7.70;;;;;;;6.55;100.00;95394.41;5021242;28;20207;-84
2022/03/17 02:13:10;;;;;;;10.77;7.87;;;;;;;6.60;100.00;95399.88;5030191;28;20194;-85
2022/03/17 02:15:37;;;;;;;11.77;8.10;;;;;;;6.64;100.00;95395.97;5032500;28;20198;-85
2022/03/17 02:18:08;;;;;;;13.50;8.93;;;;;;;6.52;100.00;95388.81;5037628;28;20198;-85
2022/03/17 02:20:40;;;;;;;13.60;9.33;;;;;;;6.63;100.00;95412.44;5025569;28;20250;-85
2022/03/17 02:26:09;;;;;;;16.77;10.27;;;;;;;6.58;100.00;95417.31;4970480;28;20200;-81
2022/03/17 02:28:38;;;;;;;14.77;9.90;;;;;;;6.57;100.00;95418.31;5017335;28;20202;-82
2022/03/17 02:31:07;;;;;;;14.03;10.23;;;;;;;6.63;100.00;95411.66;5016329;28;20294;-82
2022/03/17 02:33:38;;;;;;;13.63;9.13;;;;;;;6.69;100.00;95410.94;5020604;28;20241;-82
2022/03/17 02:36:08;;;;;;;14.37;10.00;;;;;;;6.72;100.00;95420.94;5020624;28;20278;-81
2022/03/17 02:38:37;;;;;;;13.73;9.00;;;;;;;6.59;100.00;95420.72;5022059;28;20284;-82
2022/03/17 02:41:05;;;;;;;12.93;9.00;;;;;;;6.56;100.00;95424.44;5011642;28;20238;-82
2022/03/17 02:43:47;;;;;;;13.90;9.60;;;;;;;6.56;100.00;95427.03;5020647;28;20216;-83
2022/03/17 02:46:29;;;;;;;13.03;8.77;;;;;;;6.56;100.00;95421.06;5031158;28;20296;-83
2022/03/17 02:48:58;;;;;;;11.57;8.40;;;;;;;6.52;100.00;95419.81;5022715;28;20222;-83
2022/03/17 02:51:27;;;;;;;9.90;7.30;;;;;;;6.43;100.00;95419.06;5033587;28;20258;-84
2022/03/17 02:53:57;;;;;;;9.70;7.00;;;;;;;6.43;100.00;95419.06;5033819;28;20273;-84
2022/03/17 02:56:26;;;;;;;9.83;7.10;;;;;;;6.46;100.00;95436.00;5010254;28;20617;-85
2022/03/17 02:59:01;;;;;;;8.93;6.83;;;;;;;6.47;100.00;95437.56;5030897;28;20826;-84
2022/03/17 03:01:29;;;;;;;11.27;7.47;;;;;;;6.47;100.00;95430.63;5030995;28;20217;-84
2022/03/17 03:03:57;;;;;;;11.17;6.77;;;;;;;6.48;100.00;95436.63;5016034;28;20826;-76
2022/03/17 03:06:25;;;;;;;8.57;6.30;;;;;;;6.44;100.00;95433.56;5021503;28;20230;-77
2022/03/17 03:08:53;;;;;;;8.97;6.57;;;;;;;6.50;100.00;95437.22;5020279;28;20202;-77
2022/03/17 03:11:23;;;;;;;8.50;6.60;;;;;;;6.54;99.18;95433.34;5021541;28;20208;-78
2022/03/17 03:13:51;;;;;;;8.47;6.50;;;;;;;6.51;99.86;95441.44;5019723;28;20636;-78
2022/03/17 03:16:19;;;;;;;9.23;6.43;;;;;;;6.52;100.00;95445.63;5019475;28;20896;-77
2022/03/17 03:18:47;;;;;;;9.10;6.20;;;;;;;6.56;99.16;95452.03;5017750;28;20231;-77
2022/03/17 03:21:16;;;;;;;10.37;6.60;;;;;;;6.46;99.17;95448.91;5023788;28;20220;-77
2022/03/17 03:23:43;;;;;;;8.07;6.17;;;;;;;6.44;100.00;95448.25;5019633;28;20198;-77
2022/03/17 03:26:11;;;;;;;8.87;6.40;;;;;;;6.43;100.00;95450.06;5022319;28;20213;-77
2022/03/17 03:28:41;;;;;;;8.63;6.13;;;;;;;6.44;100.00;95459.38;5019542;28;20209;-78
2022/03/17 03:31:09;;;;;;;7.27;5.50;;;;;;;6.48;98.67;95454.69;5024441;28;20202;-78
2022/03/17 03:33:37;;;;;;;7.47;5.73;;;;;;;6.56;97.62;95455.44;5021741;28;20202;-77
2022/03/17 03:38:50;;;;;;;8.50;6.50;;;;;;;6.24;93.59;95443.56;5020240;28;20601;-86
2022/03/17 03:41:18;;;;;;;9.67;6.97;;;;;;;6.07;94.22;95438.66;5026067;28;20226;-86
2022/03/17 03:43:49;;;;;;;10.77;7.77;;;;;;;5.95;94.20;95463.25;5031780;28;20295;-84
2022/03/17 03:46:17;;;;;;;12.43;7.70;;;;;;;5.96;94.58;95462.28;5012184;28;20202;-83
2022/03/17 03:48:46;;;;;;;12.53;8.50;;;;;;;5.81;94.23;95467.31;5030583;28;20233;-83
2022/03/17 03:51:15;;;;;;;12.60;9.00;;;;;;;5.73;94.75;95459.63;5017316;28;20222;-77
2022/03/17 03:56:31;;;;;;;14.13;9.27;;;;;;;5.59;95.78;95473.22;4997684;28;20280;-78
2022/03/17 03:59:02;;;;;;;14.63;9.57;;;;;;;5.44;97.01;95474.88;5016538;28;20264;-77
2022/03/17 04:01:32;;;;;;;14.87;10.23;;;;;;;5.50;96.65;95480.19;5022861;28;20230;-77
2022/03/17 04:04:01;;;;;;;15.83;10.77;;;;;;;5.33;97.67;95482.97;5021471;28;20283;-76
2022/03/17 04:06:30;;;;;;;16.93;10.80;;;;;;;5.34;98.22;95484.59;5020476;28;20234;-76
2022/03/17 04:08:59;;;;;;;16.77;10.80;;;;;;;5.36;96.83;95488.59;5019835;28;20479;-77
2022/03/17 04:11:27;;;;;;;16.20;11.13;;;;;;;5.27;97.38;95491.34;5024561;28;20197;-76
2022/03/17 04:13:54;;;;;;;16.20;10.90;;;;;;;5.33;97.74;95496.66;5026302;28;20253;-77
2022/03/17 04:16:26;;;;;;;17.47;11.30;;;;;;;5.35;97.76;95507.59;5023882;28;20205;-77
2022/03/17 04:18:54;;;;;;;17.30;11.63;;;;;;;5.33;98.46;95501.81;5029578;28;20636;-77
2022/03/17 04:21:23;;;;;;;18.27;11.37;;;;;;;5.34;97.43;95513.69;5023826;28;20232;-77
2022/03/17 04:23:51;;;;;;;17.07;11.50;;;;;;;5.22;98.10;95516.81;5021139;28;20209;-77
2022/03/17 04:26:20;;;;;;;17.53;11.63;;;;;;;5.21;99.86;95533.22;5025021;28;20672;-76
2022/03/17 04:28:48;;;;;;;17.40;11.33;;;;;;;5.17;99.31;95521.66;5023085;28;20208;-77
2022/03/17 04:31:16;;;;;;;19.00;12.00;;;;;;;5.20;100.00;95529.84;5022870;28;20683;-77
2022/03/17 04:33:47;;;;;;;17.57;11.67;;;;;;;5.21;99.55;95531.47;5024060;28;20200;-77
2022/03/17 04:36:15;;;;;;;17.97;11.80;;;;;;;5.23;99.91;95533.84;5021539;28;20202;-77
2022/03/17 04:38:45;;;;;;;19.40;12.00;;;;;;;5.22;100.00;95538.22;5030075;28;20281;-78
2022/03/17 04:41:13;;;;;;;15.60;10.70;;;;;;;5.29;99.39;95540.94;5025778;28;20227;-77
2022/03/17 04:43:42;;;;;;;18.80;11.63;;;;;;;5.12;100.00;95516.97;5025482;28;20284;-77
2022/03/17 04:46:10;;;;;;;17.50;11.00;;;;;;;5.27;100.00;95533.38;5023164;28;20590;-79
2022/03/17 04:48:41;;;;;;;18.67;12.00;;;;;;;5.23;100.00;95529.50;5024412;28;20207;-70
2022/03/17 04:51:11;;;;;;;20.77;12.83;;;;;;;5.28;100.00;95547.84;5020548;28;20201;-74
2022/03/17 04:53:40;;;;;;;18.57;11.90;;;;;;;5.11;100.00;95544.50;5022234;28;20197;-71
2022/03/17 04:56:10;;;;;;;19.27;12.27;;;;;;;5.16;100.00;95554.34;5022277;28;20309;-72
2022/03/17 04:58:40;;;;;;;19.27;12.10;;;;;;;5.17;100.00;95550.00;5021301;28;20196;-70
2022/03/17 05:01:09;;;;;;;17.73;12.17;;;;;;;5.09;100.00;95553.34;5020758;28;20224;-70
2022/03/17 05:03:39;;;;;;;17.80;10.93;;;;;;;4.98;100.00;95551.94;5025329;28;20207;-70
2022/03/17 05:06:09;;;;;;;18.97;10.83;;;;;;;4.94;100.00;95567.84;5023314;28;20192;-72
2022/03/17 05:08:39;;;;;;;17.70;11.03;;;;;;;4.86;100.00;95570.41;5022324;28;20208;-70
2022/03/17 05:11:09;;;;;;;16.07;10.87;;;;;;;4.76;100.00;95567.22;5024326;28;20280;-70
2022/03/17 05:13:39;;;;;;;15.37;10.57;;;;;;;4.76;100.00;95565.41;5022162;28;20205;-70
2022/03/17 05:16:08;;;;;;;15.13;10.00;;;;;;;4.68;100.00;95580.84;5022552;28;20215;-71
2022/03/17 05:18:37;;;;;;;14.43;10.23;;;;;;;4.57;100.00;95576.81;5022149;28;20200;-72
2022/03/17 05:21:06;;;;;;;16.47;10.17;;;;;;;4.70;100.00;95584.09;5020541;28;20204;-72
2022/03/17 05:23:35;;;;;;;19.17;10.57;;;;;;;4.74;100.00;95595.66;5021639;28;20207;-71
2022/03/17 05:26:04;;;;;;;14.53;8.67;;;;;;;4.69;100.00;95586.81;5022877;28;20297;-71
2022/03/17 05:28:33;;;;;;;13.27;9.10;;;;;;;4.52;100.00;95591.13;5022881;28;20363;-72
2022/03/17 05:31:02;;;;;;;13.20;8.60;;;;;;;4.50;100.00;95595.66;5020428;28;20588;-71
2022/03/17 05:33:31;;;;;;;15.87;10.23;;;;;;;4.63;100.00;95595.16;5025195;28;20285;-71
2022/03/17 05:35:58;;;;;;;16.10;9.73;;;;;;;4.63;100.00;95593.41;5021792;28;20269;-71
2022/03/17 05:38:27;;;;;;;14.20;8.67;;;;;;;4.68;100.00;95598.88;5022913;28;20195;-71
2022/03/17 05:40:55;;;;;;;14.73;9.10;;;;;;;4.64;100.00;95599.38;5022059;28;20279;-71
2022/03/17 05:43:24;;;;;;;15.20;9.00;;;;;;;4.71;100.00;95613.19;5021677;28;20318;-70
2022/03/17 05:45:53;;;;;;;12.13;8.37;;;;;;;4.76;100.00;95613.56;5023528;28;20249;-70
2022/03/17 05:48:22;;;;;;;13.07;8.70;;;;;;;4.69;100.00;95625.44;5020988;28;20194;-71
2022/03/17 05:50:50;;;;;;;14.40;8.30;;;;;;;4.71;100.00;95626.06;5023956;28;20198;-70
2022/03/17 05:53:19;;;;;;;14.57;9.30;;;;;;;4.67;100.00;95637.66;5020715;28;20247;-70
2022/03/17 05:55:47;;;;;;;12.93;8.20;;;;;;;4.63;100.00;95641.50;5020284;28;20219;-71
2022/03/17 05:58:15;;;;;;;12.03;8.20;;;;;;;4.68;100.00;95644.41;5023350;28;20203;-70
2022/03/17 06:00:45;;;;;;;12.37;7.80;;;;;;;4.71;100.00;95644.91;5020860;28;20199;-70
2022/03/17 06:03:12;;;;;;;10.10;6.87;;;;;;;4.70;100.00;95642.50;5024166;28;20223;-70
2022/03/17 06:05:40;;;;;;;10.10;7.10;;;;;;;4.70;100.00;95645.06;5020317;28;20564;-70
2022/03/17 06:08:10;;;;;;;12.27;7.80;;;;;;;4.68;100.00;95641.81;5024032;28;20203;-71
2022/03/17 06:10:38;;;;;;;12.17;7.40;;;;;;;4.64;100.00;95637.97;5022265;28;20678;-71
2022/03/17 06:13:07;;;;;;;10.80;7.23;;;;;;;4.60;100.00;95645.19;5023662;28;20290;-70
2022/03/17 06:15:36;;;;;;;13.70;7.63;;;;;;;4.51;100.00;95646.94;5023268;28;20196;-70
2022/03/17 06:18:07;;;;;;;15.33;7.13;;;;;;;4.43;100.00;95649.50;5020599;28;20196;-71
2022/03/17 06:20:38;;;;;;;10.10;6.93;;;;;;;4.46;100.00;95650.94;5021333;28;20239;-70
2022/03/17 06:23:07;;;;;;;10.77;7.60;;;;;;;4.47;100.00;95650.00;5021822;28;20219;-71
2022/03/17 06:25:37;;;;;;;12.67;7.77;;;;;;;4.44;100.00;95645.16;5019415;28;20200;-71
2022/03/17 06:28:05;;;;;;;12.83;7.20;;;;;;;4.51;100.00;95659.00;5020999;28;20204;-70
2022/03/17 06:30:35;;;;;;;10.40;7.20;;;;;;;4.54;100.00;95659.50;5017127;28;20288;-71
2022/03/17 06:33:05;;;;;;;10.87;7.40;;;;;;;4.46;100.00;95648.38;5020794;28;20242;-73
2022/03/17 06:35:35;;;;;;;12.03;7.77;;;;;;;4.53;100.00;95669.97;5020994;28;20291;-72
2022/03/17 06:38:05;;;;;;;12.57;7.80;;;;;;;4.52;100.00;95673.50;5021775;28;20217;-73
2022/03/17 06:40:34;;;;;;;10.83;7.80;;;;;;;4.53;100.00;95677.69;5020741;28;20204;-72
2022/03/17 06:43:03;;;;;;;13.53;7.60;;;;;;;4.51;100.00;95680.41;5020592;28;20232;-71
2022/03/17 06:45:31;;;;;;;12.30;7.50;;;;;;;4.37;100.00;95675.84;5023910;28;20196;-73
2022/03/17 06:48:00;;;;;;;11.63;7.87;;;;;;;4.38;100.00;95681.81;5018989;28;20246;-73
2022/03/17 06:50:33;;;;;;;10.47;7.80;;;;;;;4.43;100.00;95682.13;5021791;28;21017;-72
2022/03/17 06:53:01;;;;;;;14.03;8.53;;;;;;;4.49;100.00;95684.91;5020649;28;20195;-71
2022/03/17 06:55:29;;;;;;;11.67;8.03;;;;;;;4.48;100.00;95680.72;5018886;28;20198;-70
2022/03/17 06:58:24;;;;;;;14.03;8.10;;;;;;;4.57;100.00;95690.06;5024461;28;20187;-71
2022/03/17 07:00:53;;;;;;;12.03;8.17;;;;;;;4.60;100.00;95694.09;5018111;28;20207;-70
2022/03/17 07:03:21;;;;;;;12.30;8.63;;;;;;;4.69;100.00;95698.31;5016982;28;20535;-71
2022/03/17 07:05:51;;;;;;;12.17;8.30;;;;;;;4.72;100.00;95707.50;5019040;28;20203;-70
2022/03/17 07:08:19;;;;;;;13.13;8.83;;;;;;;4.68;100.00;95707.00;5015555;28;20199;-69
2022/03/17 07:10:47;;;;;;;12.27;8.50;;;;;;;4.69;100.00;95705.25;5015913;28;20202;-70
2022/03/17 07:13:14;;;;;;;11.80;7.70;;;;;;;4.69;100.00;95712.97;5004402;28;20580;-70
2022/03/17 07:16:10;;;;;;;12.20;8.30;;;;;;;4.76;100.00;95706.25;5016745;28;20237;-70
2022/03/17 07:18:42;;;;;;;10.93;8.10;;;;;;;4.67;100.00;95718.28;5017206;28;20291;-74
2022/03/17 07:21:11;;;;;;;13.60;8.03;;;;;;;4.68;100.00;95719.06;5019135;28;20261;-78
2022/03/17 07:23:40;;;;;;;14.43;8.73;;;;;;;4.73;100.00;95715.09;5020863;28;20261;-74
2022/03/17 07:26:09;;;;;;;11.43;7.97;;;;;;;4.51;100.00;95719.00;5019463;28;20207;-74
2022/03/17 07:28:37;;;;;;;13.10;8.60;;;;;;;4.44;100.00;95719.78;5017976;28;20715;-75
2022/03/17 07:31:26;;;;;;;12.27;8.57;;;;;;;4.42;100.00;95725.06;5014753;28;20218;-74
2022/03/17 07:33:55;;;;;;;14.03;8.77;;;;;;;4.50;100.00;95722.53;5021834;28;20695;-75
2022/03/17 07:36:25;;;;;;;14.50;9.67;;;;;;;4.42;100.00;95719.13;5020186;28;20191;-72
2022/03/17 07:38:56;;;;;;;19.00;9.57;;;;;;;4.42;100.00;95719.94;5015965;28;20725;-74
2022/03/17 07:41:24;;;;;;;16.53;10.60;;;;;;;4.34;100.00;95719.06;5019188;28;20648;-74
2022/03/17 07:43:52;;;;;;;18.57;10.87;;;;;;;4.29;100.00;95726.47;5017937;28;20554;-74
2022/03/17 07:46:21;;;;;;;18.67;10.90;;;;;;;4.14;100.00;95736.50;5020799;28;20195;-74
2022/03/17 07:48:49;;;;;;;16.63;11.00;;;;;;;4.24;100.00;95732.03;5023117;28;20195;-74
2022/03/17 07:51:17;;;;;;;16.87;11.23;;;;;;;4.28;100.00;95735.94;5023742;28;20207;-74
2022/03/17 07:53:45;;;;;;;18.63;11.73;;;;;;;4.28;100.00;95728.22;5022088;28;20666;-74
2022/03/17 07:56:14;;;;;;;19.40;11.87;;;;;;;4.30;100.00;95717.78;5021822;28;20222;-75
2022/03/17 07:58:44;;;;;;;17.97;12.03;;;;;;;4.45;100.00;95735.06;5023569;28;20202;-74
2022/03/17 08:01:12;;;;;;;22.90;13.87;;;;;;;4.56;100.00;95732.22;5023075;28;20231;-77
2022/03/17 08:03:42;;;;;;;23.60;13.50;;;;;;;4.62;100.00;95741.09;5023492;28;20322;-73
2022/03/17 08:06:10;;;;;;;23.10;13.90;;;;;;;4.77;100.00;95733.59;5023622;28;20265;-73
2022/03/17 08:08:38;;;;;;;19.63;13.77;;;;;;;4.75;100.00;95733.75;5022752;28;20202;-74
2022/03/17 08:11:09;;;;;;;20.60;13.37;;;;;;;4.80;100.00;95741.00;5022813;28;20554;-75
2022/03/17 08:13:37;;;;;;;21.87;14.10;;;;;;;4.68;100.00;95726.78;5020120;28;20264;-74
2022/03/17 08:16:06;;;;;;;22.77;13.77;;;;;;;4.83;100.00;95738.91;5024250;28;20192;-75
2022/03/17 08:18:34;;;;;;;20.67;13.20;;;;;;;4.98;100.00;95734.78;5023710;28;20201;-73
2022/03/17 08:21:02;;;;;;;21.53;13.47;;;;;;;4.94;100.00;95735.25;5020271;28;20593;-73
2022/03/17 08:23:30;;;;;;;20.67;13.20;;;;;;;5.03;100.00;95744.63;5022168;28;20230;-74
2022/03/17 08:25:57;;;;;;;24.90;13.27;;;;;;;5.07;100.00;95740.78;5022723;28;20204;-73
2022/03/17 08:28:27;;;;;;;21.93;13.53;;;;;;;5.06;100.00;95745.13;5023163;28;20251;-74
2022/03/17 08:30:55;;;;;;;21.43;13.80;;;;;;;5.05;100.00;95737.56;5022641;28;20235;-75
2022/03/17 08:33:24;;;;;;;22.43;14.27;;;;;;;5.00;100.00;95743.16;5021070;28;20197;-74
2022/03/17 08:35:52;;;;;;;23.57;14.10;;;;;;;5.17;100.00;95751.72;5022441;28;20208;-74
2022/03/17 08:38:21;;;;;;;21.57;13.97;;;;;;;5.35;100.00;95746.47;5021549;28;20207;-74
2022/03/17 08:40:48;;;;;;;18.77;12.97;;;;;;;5.38;100.00;95748.72;5022037;28;20188;-73
2022/03/17 08:43:16;;;;;;;19.87;13.53;;;;;;;5.29;100.00;95754.81;5022797;28;20221;-74
2022/03/17 08:51:17;;;;;;;23.07;14.23;;;;;;;5.62;100.00;95751.34;5025128;28;20208;-74
2022/03/17 08:53:45;;;;;;;21.07;12.93;;;;;;;5.64;100.00;95754.56;5022461;28;20193;-74
2022/03/17 08:56:14;;;;;;;20.43;13.43;;;;;;;5.55;100.00;95750.34;5019935;28;20968;-74
2022/03/17 08:58:42;;;;;;;19.80;13.50;;;;;;;5.37;99.29;95763.38;5022903;28;20587;-74
2022/03/17 09:01:11;;;;;;;19.73;13.07;;;;;;;5.44;97.34;95768.72;5016371;28;20197;-74
2022/03/17 09:03:49;;;;;;;20.10;13.27;;;;;;;5.37;99.06;95770.31;5016793;28;20233;-73
2022/03/17 09:06:16;;;;;;;20.53;13.00;;;;;;;5.36;100.00;95772.09;4988926;28;20719;-73
2022/03/17 09:08:44;;;;;;;19.40;13.00;;;;;;;5.40;100.00;95765.63;5014482;28;20267;-74
2022/03/17 09:11:13;;;;;;;20.07;13.00;;;;;;;5.42;100.00;95766.31;5019206;28;20233;-74
2022/03/17 09:13:42;;;;;;;19.70;13.27;;;;;;;5.55;100.00;95774.38;5021167;28;20572;-74
2022/03/17 09:16:12;;;;;;;19.90;12.83;;;;;;;5.63;100.00;95776.13;5024759;28;20295;-74
2022/03/17 09:18:42;;;;;;;17.80;11.57;;;;;;;5.60;100.00;95781.63;5021808;28;20214;-73
2022/03/17 09:21:10;;;;;;;15.73;11.23;;;;;;;5.62;100.00;95783.09;5023873;28;20227;-73
2022/03/17 09:23:38;;;;;;;18.07;11.27;;;;;;;5.67;99.11;95783.41;5022151;28;20278;-75
2022/03/17 09:26:05;;;;;;;18.97;12.20;;;;;;;5.71;100.00;95786.50;5022973;28;20301;-74
2022/03/17 09:28:32;;;;;;;16.87;11.30;;;;;;;5.72;99.23;95794.03;5022195;28;20924;-74
2022/03/17 09:30:59;;;;;;;14.77;10.60;;;;;;;5.70;99.31;95801.16;5021548;28;20821;-75
2022/03/17 09:33:29;;;;;;;15.20;10.80;;;;;;;5.67;100.00;95791.16;5021578;28;20828;-73
2022/03/17 09:35:58;;;;;;;17.37;12.03;;;;;;;5.78;100.00;95800.34;5023830;28;20580;-74
2022/03/17 09:38:26;;;;;;;19.10;11.20;;;;;;;5.90;99.69;95806.84;5021624;28;20194;-73
2022/03/17 09:40:53;;;;;;;21.53;12.60;;;;;;;5.91;100.00;95813.63;5021260;28;20206;-73
2022/03/17 09:43:21;;;;;;;17.17;10.90;;;;;;;5.93;98.95;95810.84;5022463;28;20221;-74
2022/03/17 09:45:52;;;;;;;13.13;10.10;;;;;;;5.94;96.16;95815.06;5021247;28;20202;-74
2022/03/17 09:48:20;;;;;;;16.83;10.97;;;;;;;5.76;97.02;95816.94;5021865;28;20193;-73
2022/03/17 09:50:56;;;;;;;16.73;10.37;;;;;;;5.87;97.75;95820.06;5021649;28;20194;-73
2022/03/17 09:53:24;;;;;;;14.43;10.07;;;;;;;5.92;96.47;95817.78;5020727;28;20190;-73
2022/03/17 09:55:53;;;;;;;14.77;10.63;;;;;;;5.78;95.22;95822.72;5018880;28;20229;-72
2022/03/17 09:58:21;;;;;;;15.23;10.13;;;;;;;5.84;95.95;95817.75;5020368;28;20584;-73
2022/03/17 10:00:49;;;;;;;17.60;10.87;;;;;;;5.83;95.88;95812.78;5020203;28;20195;-74
2022/03/17 10:03:18;;;;;;;16.77;10.83;;;;;;;5.86;95.85;95815.06;5023420;28;20217;-73
2022/03/17 10:05:47;;;;;;;17.70;10.60;;;;;;;5.94;95.49;95822.81;5017977;28;20708;-74
2022/03/17 10:08:20;;;;;;;14.90;10.53;;;;;;;5.91;95.13;95815.38;5021460;28;20248;-74
2022/03/17 10:10:52;;;;;;;12.63;8.97;;;;;;;5.90;94.94;95824.06;5021124;28;20194;-74
2022/03/17 10:13:22;;;;;;;10.50;8.03;;;;;;;5.63;93.04;95828.53;5021949;28;20198;-72
2022/03/17 10:16:09;;;;;;;10.17;7.13;;;;;;;5.60;91.98;95826.25;5023379;28;20224;-74
2022/03/17 10:18:39;;;;;;;9.30;6.87;;;;;;;5.61;90.04;95827.88;5022547;28;20198;-73
2022/03/17 10:21:11;;;;;;;11.47;7.80;;;;;;;5.71;89.53;95828.53;5025543;28;20204;-75
2022/03/17 10:23:48;;;;;;;10.80;7.47;;;;;;;5.76;89.50;95832.41;5022085;28;20218;-73
2022/03/17 10:26:33;;;;;;;11.13;8.10;;;;;;;5.68;88.63;95828.84;5021589;28;20197;-75
2022/03/17 10:29:10;;;;;;;14.67;8.27;;;;;;;5.70;88.91;95833.84;5021936;28;20201;-74
2022/03/17 10:31:55;;;;;;;11.10;7.50;;;;;;;5.78;89.56;95828.72;5021342;28;20192;-74
2022/03/17 10:34:25;;;;;;;10.73;7.80;;;;;;;5.91;88.83;95836.03;5021197;28;20194;-73
2022/03/17 10:37:07;;;;;;;10.60;8.17;;;;;;;5.98;88.11;95834.41;5020740;28;20221;-74
2022/03/17 10:39:39;;;;;;;12.60;8.07;;;;;;;6.00;83.97;95835.06;5020308;28;20269;-74
2022/03/17 10:42:15;;;;;;;11.90;8.07;;;;;;;6.06;86.63;95827.47;5020653;28;20201;-73
2022/03/17 10:44:48;;;;;;;12.00;8.33;;;;;;;5.97;86.38;95827.66;5022013;28;20213;-73
2022/03/17 10:47:22;;;;;;;11.37;8.20;;;;;;;6.10;86.39;95833.13;5021649;28;20320;-75
2022/03/17 10:50:04;;;;;;;11.80;8.83;;;;;;;6.20;85.65;95836.38;5019752;28;20193;-74
2022/03/17 10:52:50;;;;;;;12.33;8.23;;;;;;;6.27;84.37;95832.97;5019657;28;20676;-73
2022/03/17 10:55:25;;;;;;;14.77;8.70;;;;;;;6.25;82.43;95832.31;5019870;28;20202;-73
2022/03/17 10:57:58;;;;;;;12.53;8.07;;;;;;;6.21;83.56;95836.19;5020677;28;20291;-74
2022/03/17 11:00:27;;;;;;;12.43;8.17;;;;;;;6.24;83.17;95837.63;5020316;28;20222;-74
2022/03/17 11:02:57;;;;;;;10.70;7.80;;;;;;;6.19;82.85;95835.53;5020387;28;20199;-74
2022/03/17 11:05:27;;;;;;;10.93;8.07;;;;;;;6.14;81.57;95831.84;5019406;28;20202;-74
2022/03/17 11:07:57;;;;;;;11.43;8.17;;;;;;;6.05;84.00;95819.91;5022712;28;20725;-74
2022/03/17 11:10:28;;;;;;;12.03;7.57;;;;;;;5.86;84.54;95826.16;5019343;28;20303;-73
2022/03/17 11:12:56;;;;;;;10.90;7.70;;;;;;;5.94;85.39;95823.63;5016641;28;20193;-75
2022/03/17 11:15:29;;;;;;;11.33;7.80;;;;;;;5.96;84.86;95829.41;5019117;28;20582;-75
2022/03/17 11:18:03;;;;;;;14.67;9.33;;;;;;;5.93;84.52;95824.56;5017090;28;20199;-75
2022/03/17 11:20:32;;;;;;;15.30;10.33;;;;;;;6.00;86.21;95819.59;5019477;28;20200;-75
2022/03/17 11:23:19;;;;;;;11.53;8.47;;;;;;;5.99;85.84;95820.53;5019094;28;20699;-74
2022/03/17 11:25:53;;;;;;;15.43;9.40;;;;;;;6.04;85.06;95826.03;5021331;28;20233;-75
2022/03/17 11:28:32;;;;;;;12.73;8.57;;;;;;;6.07;81.77;95815.38;5021226;28;20190;-74
2022/03/17 11:31:04;;;;;;;11.60;8.10;;;;;;;5.99;81.70;95828.28;5023242;28;20263;-74
2022/03/17 11:33:34;;;;;;;13.37;8.50;;;;;;;5.87;82.91;95814.88;5022296;28;20198;-75
2022/03/17 11:36:19;;;;;;;14.33;8.40;;;;;;;5.90;83.50;95817.16;5018550;28;20261;-75
2022/03/17 11:39:02;;;;;;;13.47;8.90;;;;;;;5.99;83.17;95808.44;5021839;28;20203;-74
2022/03/17 11:41:32;;;;;;;15.10;9.33;;;;;;;6.14;81.89;95811.19;5021721;28;20199;-75
2022/03/17 11:44:05;;;;;;;15.53;9.60;;;;;;;6.18;82.44;95804.72;5020806;28;20221;-75
2022/03/17 11:46:44;;;;;;;13.70;9.20;;;;;;;6.34;82.91;95798.75;5019890;28;20731;-73
2022/03/17 11:49:27;;;;;;;14.27;9.57;;;;;;;6.39;82.08;95811.97;5017524;28;20584;-75
2022/03/17 11:52:00;;;;;;;16.73;9.57;;;;;;;6.38;82.14;95792.31;5021183;28;20599;-74